sensor_id;sensor_type;location;lat;lon;timestamp;P1;durP1;ratioP1;P2;durP2;ratioP2
4148;SDS011;2088;51.032;7.082;2022-09-30T00:01:22;3.30;;;2.30;;
4148;SDS011;2088;51.032;7.082;2022-09-30T00:03:49;2.53;;;2.17;;
4148;SDS011;2088;51.032;7.082;2022-09-30T00:06:16;6.83;;;3.10;;
4148;SDS011;2088;51.032;7.082;2022-09-30T00:08:44;3.77;;;2.57;;
4148;SDS011;2088;51.032;7.082;2022-09-30T00:11:12;7.20;;;2.63;;
4148;SDS011;2088;51.032;7.082;2022-09-30T00:13:40;5.40;;;4.57;;
4148;SDS011;2088;51.032;7.082;2022-09-30T00:16:09;5.27;;;3.37;;
4148;SDS011;2088;51.032;7.082;2022-09-30T00:18:36;6.00;;;3.10;;
4148;SDS011;2088;51.032;7.082;2022-09-30T00:21:03;2.93;;;2.73;;
4148;SDS011;2088;51.032;7.082;2022-09-30T00:23:30;6.50;;;3.30;;
4148;SDS011;2088;51.032;7.082;2022-09-30T00:25:57;3.77;;;3.27;;
4148;SDS011;2088;51.032;7.082;2022-09-30T00:28:25;2.60;;;2.07;;
4148;SDS011;2088;51.032;7.082;2022-09-30T00:30:52;6.60;;;3.03;;
4148;SDS011;2088;51.032;7.082;2022-09-30T00:33:20;2.77;;;2.37;;
4148;SDS011;2088;51.032;7.082;2022-09-30T00:35:46;3.20;;;2.87;;
4148;SDS011;2088;51.032;7.082;2022-09-30T00:38:13;3.40;;;3.10;;
4148;SDS011;2088;51.032;7.082;2022-09-30T00:40:39;3.47;;;3.03;;
4148;SDS011;2088;51.032;7.082;2022-09-30T00:43:09;3.90;;;2.70;;
4148;SDS011;2088;51.032;7.082;2022-09-30T00:45:39;4.57;;;2.87;;
4148;SDS011;2088;51.032;7.082;2022-09-30T00:48:14;10.70;;;3.23;;
4148;SDS011;2088;51.032;7.082;2022-09-30T00:50:46;2.40;;;2.20;;
4148;SDS011;2088;51.032;7.082;2022-09-30T00:53:20;3.90;;;3.10;;
4148;SDS011;2088;51.032;7.082;2022-09-30T00:55:55;5.10;;;2.67;;
4148;SDS011;2088;51.032;7.082;2022-09-30T00:58:27;3.63;;;2.20;;
4148;SDS011;2088;51.032;7.082;2022-09-30T01:00:56;7.40;;;3.10;;
4148;SDS011;2088;51.032;7.082;2022-09-30T01:03:25;2.63;;;2.30;;
4148;SDS011;2088;51.032;7.082;2022-09-30T01:05:56;5.67;;;2.40;;
4148;SDS011;2088;51.032;7.082;2022-09-30T01:08:22;3.00;;;2.80;;
4148;SDS011;2088;51.032;7.082;2022-09-30T01:10:49;5.83;;;2.27;;
4148;SDS011;2088;51.032;7.082;2022-09-30T01:13:16;2.80;;;2.20;;
4148;SDS011;2088;51.032;7.082;2022-09-30T01:15:50;5.50;;;2.83;;
4148;SDS011;2088;51.032;7.082;2022-09-30T01:18:33;6.93;;;2.93;;
4148;SDS011;2088;51.032;7.082;2022-09-30T01:21:15;6.10;;;2.73;;
4148;SDS011;2088;51.032;7.082;2022-09-30T01:24:08;2.23;;;1.73;;
4148;SDS011;2088;51.032;7.082;2022-09-30T01:26:49;2.20;;;2.00;;
4148;SDS011;2088;51.032;7.082;2022-09-30T01:29:48;6.93;;;3.17;;
4148;SDS011;2088;51.032;7.082;2022-09-30T01:33:07;3.50;;;3.20;;
4148;SDS011;2088;51.032;7.082;2022-09-30T01:35:59;4.10;;;2.33;;
4148;SDS011;2088;51.032;7.082;2022-09-30T01:38:40;4.83;;;3.00;;
4148;SDS011;2088;51.032;7.082;2022-09-30T01:41:15;3.23;;;2.83;;
4148;SDS011;2088;51.032;7.082;2022-09-30T01:43:53;3.57;;;2.40;;
4148;SDS011;2088;51.032;7.082;2022-09-30T01:46:29;2.87;;;2.00;;
4148;SDS011;2088;51.032;7.082;2022-09-30T01:49:02;3.27;;;2.43;;
4148;SDS011;2088;51.032;7.082;2022-09-30T01:51:36;5.40;;;3.70;;
4148;SDS011;2088;51.032;7.082;2022-09-30T01:54:08;2.77;;;2.10;;
4148;SDS011;2088;51.032;7.082;2022-09-30T01:56:40;2.90;;;2.63;;
4148;SDS011;2088;51.032;7.082;2022-09-30T01:59:09;3.30;;;2.10;;
4148;SDS011;2088;51.032;7.082;2022-09-30T02:01:41;4.33;;;2.20;;
4148;SDS011;2088;51.032;7.082;2022-09-30T02:04:13;4.20;;;2.97;;
4148;SDS011;2088;51.032;7.082;2022-09-30T02:06:44;3.43;;;2.37;;
4148;SDS011;2088;51.032;7.082;2022-09-30T02:09:16;7.03;;;2.73;;
4148;SDS011;2088;51.032;7.082;2022-09-30T02:11:47;5.83;;;3.40;;
4148;SDS011;2088;51.032;7.082;2022-09-30T02:14:15;3.40;;;2.93;;
4148;SDS011;2088;51.032;7.082;2022-09-30T02:16:46;3.23;;;2.63;;
4148;SDS011;2088;51.032;7.082;2022-09-30T02:19:20;4.73;;;2.77;;
4148;SDS011;2088;51.032;7.082;2022-09-30T02:21:54;2.17;;;1.97;;
4148;SDS011;2088;51.032;7.082;2022-09-30T02:24:25;3.23;;;2.93;;
4148;SDS011;2088;51.032;7.082;2022-09-30T02:26:56;5.47;;;1.97;;
4148;SDS011;2088;51.032;7.082;2022-09-30T02:29:28;3.07;;;2.77;;
4148;SDS011;2088;51.032;7.082;2022-09-30T02:32:00;4.70;;;2.70;;
4148;SDS011;2088;51.032;7.082;2022-09-30T02:34:33;4.27;;;3.53;;
4148;SDS011;2088;51.032;7.082;2022-09-30T02:37:04;4.10;;;2.90;;
4148;SDS011;2088;51.032;7.082;2022-09-30T02:39:36;6.03;;;3.90;;
4148;SDS011;2088;51.032;7.082;2022-09-30T02:42:10;3.30;;;2.17;;
4148;SDS011;2088;51.032;7.082;2022-09-30T02:44:39;3.63;;;2.93;;
4148;SDS011;2088;51.032;7.082;2022-09-30T02:47:08;2.83;;;2.07;;
4148;SDS011;2088;51.032;7.082;2022-09-30T02:49:43;5.33;;;3.53;;
4148;SDS011;2088;51.032;7.082;2022-09-30T02:52:19;4.13;;;2.47;;
4148;SDS011;2088;51.032;7.082;2022-09-30T02:54:51;5.70;;;2.30;;
4148;SDS011;2088;51.032;7.082;2022-09-30T02:57:28;2.97;;;2.30;;
4148;SDS011;2088;51.032;7.082;2022-09-30T03:00:03;2.60;;;2.10;;
4148;SDS011;2088;51.032;7.082;2022-09-30T03:02:31;4.17;;;2.77;;
4148;SDS011;2088;51.032;7.082;2022-09-30T03:04:59;4.30;;;2.90;;
4148;SDS011;2088;51.032;7.082;2022-09-30T03:07:26;5.07;;;3.43;;
4148;SDS011;2088;51.032;7.082;2022-09-30T03:09:54;4.43;;;3.07;;
4148;SDS011;2088;51.032;7.082;2022-09-30T03:12:23;3.63;;;1.93;;
4148;SDS011;2088;51.032;7.082;2022-09-30T03:15:06;6.37;;;2.90;;
4148;SDS011;2088;51.032;7.082;2022-09-30T03:18:04;4.20;;;2.37;;
4148;SDS011;2088;51.032;7.082;2022-09-30T03:20:44;3.90;;;3.10;;
4148;SDS011;2088;51.032;7.082;2022-09-30T03:23:23;6.33;;;2.90;;
4148;SDS011;2088;51.032;7.082;2022-09-30T03:26:03;10.60;;;3.47;;
4148;SDS011;2088;51.032;7.082;2022-09-30T03:28:42;3.30;;;3.00;;
4148;SDS011;2088;51.032;7.082;2022-09-30T03:31:18;4.47;;;2.00;;
4148;SDS011;2088;51.032;7.082;2022-09-30T03:33:50;3.87;;;3.27;;
4148;SDS011;2088;51.032;7.082;2022-09-30T03:36:23;4.00;;;2.60;;
4148;SDS011;2088;51.032;7.082;2022-09-30T03:38:59;2.70;;;2.33;;
4148;SDS011;2088;51.032;7.082;2022-09-30T03:41:30;5.10;;;2.00;;
4148;SDS011;2088;51.032;7.082;2022-09-30T03:44:01;4.23;;;3.27;;
4148;SDS011;2088;51.032;7.082;2022-09-30T03:46:35;4.13;;;3.40;;
4148;SDS011;2088;51.032;7.082;2022-09-30T03:49:06;4.77;;;3.73;;
4148;SDS011;2088;51.032;7.082;2022-09-30T03:51:38;4.83;;;3.57;;
4148;SDS011;2088;51.032;7.082;2022-09-30T03:54:06;2.70;;;2.50;;
4148;SDS011;2088;51.032;7.082;2022-09-30T03:56:34;4.50;;;2.80;;
4148;SDS011;2088;51.032;7.082;2022-09-30T03:59:08;6.23;;;3.23;;
4148;SDS011;2088;51.032;7.082;2022-09-30T04:01:37;3.60;;;3.30;;
4148;SDS011;2088;51.032;7.082;2022-09-30T04:04:04;5.43;;;2.97;;
4148;SDS011;2088;51.032;7.082;2022-09-30T04:06:30;4.47;;;2.90;;
4148;SDS011;2088;51.032;7.082;2022-09-30T04:08:58;4.90;;;2.57;;
4148;SDS011;2088;51.032;7.082;2022-09-30T04:11:25;4.20;;;2.77;;
4148;SDS011;2088;51.032;7.082;2022-09-30T04:13:51;3.50;;;3.03;;
4148;SDS011;2088;51.032;7.082;2022-09-30T04:16:18;2.20;;;2.00;;
4148;SDS011;2088;51.032;7.082;2022-09-30T04:18:44;3.33;;;2.73;;
4148;SDS011;2088;51.032;7.082;2022-09-30T04:21:11;4.17;;;3.50;;
4148;SDS011;2088;51.032;7.082;2022-09-30T04:23:39;5.77;;;2.80;;
4148;SDS011;2088;51.032;7.082;2022-09-30T04:26:09;4.40;;;2.93;;
4148;SDS011;2088;51.032;7.082;2022-09-30T04:28:36;5.43;;;3.23;;
4148;SDS011;2088;51.032;7.082;2022-09-30T04:31:03;3.07;;;2.73;;
4148;SDS011;2088;51.032;7.082;2022-09-30T04:33:31;8.00;;;3.93;;
4148;SDS011;2088;51.032;7.082;2022-09-30T04:35:58;3.77;;;2.70;;
4148;SDS011;2088;51.032;7.082;2022-09-30T04:38:25;18.33;;;4.37;;
4148;SDS011;2088;51.032;7.082;2022-09-30T04:40:53;7.40;;;4.30;;
4148;SDS011;2088;51.032;7.082;2022-09-30T04:43:22;3.73;;;2.30;;
4148;SDS011;2088;51.032;7.082;2022-09-30T04:45:49;2.77;;;2.57;;
4148;SDS011;2088;51.032;7.082;2022-09-30T04:48:17;4.20;;;3.80;;
4148;SDS011;2088;51.032;7.082;2022-09-30T04:50:45;4.03;;;3.70;;
4148;SDS011;2088;51.032;7.082;2022-09-30T04:53:11;22.50;;;2.50;;
4148;SDS011;2088;51.032;7.082;2022-09-30T04:55:39;5.30;;;3.30;;
4148;SDS011;2088;51.032;7.082;2022-09-30T04:58:05;5.03;;;3.23;;
4148;SDS011;2088;51.032;7.082;2022-09-30T05:00:33;6.33;;;3.33;;
4148;SDS011;2088;51.032;7.082;2022-09-30T05:03:00;4.97;;;2.70;;
4148;SDS011;2088;51.032;7.082;2022-09-30T05:05:27;3.10;;;2.73;;
4148;SDS011;2088;51.032;7.082;2022-09-30T05:07:57;5.20;;;3.10;;
4148;SDS011;2088;51.032;7.082;2022-09-30T05:10:25;3.27;;;2.90;;
4148;SDS011;2088;51.032;7.082;2022-09-30T05:12:52;5.07;;;4.57;;
4148;SDS011;2088;51.032;7.082;2022-09-30T05:15:19;8.10;;;6.00;;
4148;SDS011;2088;51.032;7.082;2022-09-30T05:17:48;5.40;;;4.37;;
4148;SDS011;2088;51.032;7.082;2022-09-30T05:20:15;5.10;;;3.73;;
4148;SDS011;2088;51.032;7.082;2022-09-30T05:22:41;10.63;;;4.50;;
4148;SDS011;2088;51.032;7.082;2022-09-30T05:25:08;7.57;;;3.10;;
4148;SDS011;2088;51.032;7.082;2022-09-30T05:27:35;5.40;;;3.83;;
4148;SDS011;2088;51.032;7.082;2022-09-30T05:30:02;7.33;;;2.90;;
4148;SDS011;2088;51.032;7.082;2022-09-30T05:32:30;6.00;;;4.17;;
4148;SDS011;2088;51.032;7.082;2022-09-30T05:34:58;6.40;;;3.73;;
4148;SDS011;2088;51.032;7.082;2022-09-30T05:37:27;3.70;;;2.87;;
4148;SDS011;2088;51.032;7.082;2022-09-30T05:39:53;7.33;;;3.70;;
4148;SDS011;2088;51.032;7.082;2022-09-30T05:42:20;3.73;;;3.40;;
4148;SDS011;2088;51.032;7.082;2022-09-30T05:44:47;3.40;;;2.23;;
4148;SDS011;2088;51.032;7.082;2022-09-30T05:47:13;7.10;;;3.20;;
4148;SDS011;2088;51.032;7.082;2022-09-30T05:49:39;3.53;;;3.07;;
4148;SDS011;2088;51.032;7.082;2022-09-30T05:52:07;4.70;;;2.80;;
4148;SDS011;2088;51.032;7.082;2022-09-30T05:54:34;3.20;;;2.90;;
4148;SDS011;2088;51.032;7.082;2022-09-30T05:57:00;4.33;;;2.90;;
4148;SDS011;2088;51.032;7.082;2022-09-30T05:59:27;4.60;;;3.27;;
4148;SDS011;2088;51.032;7.082;2022-09-30T06:01:53;3.93;;;2.93;;
4148;SDS011;2088;51.032;7.082;2022-09-30T06:04:19;4.80;;;4.20;;
4148;SDS011;2088;51.032;7.082;2022-09-30T06:06:46;3.13;;;2.83;;
4148;SDS011;2088;51.032;7.082;2022-09-30T06:09:14;3.30;;;2.63;;
4148;SDS011;2088;51.032;7.082;2022-09-30T06:11:41;9.67;;;4.00;;
4148;SDS011;2088;51.032;7.082;2022-09-30T06:14:07;3.47;;;3.00;;
4148;SDS011;2088;51.032;7.082;2022-09-30T06:16:34;6.60;;;2.63;;
4148;SDS011;2088;51.032;7.082;2022-09-30T06:19:00;6.60;;;3.37;;
4148;SDS011;2088;51.032;7.082;2022-09-30T06:21:26;6.43;;;2.63;;
4148;SDS011;2088;51.032;7.082;2022-09-30T06:23:54;7.57;;;4.40;;
4148;SDS011;2088;51.032;7.082;2022-09-30T06:26:21;6.40;;;3.80;;
4148;SDS011;2088;51.032;7.082;2022-09-30T06:28:48;4.23;;;3.10;;
4148;SDS011;2088;51.032;7.082;2022-09-30T06:31:15;13.80;;;4.70;;
4148;SDS011;2088;51.032;7.082;2022-09-30T06:33:42;5.13;;;3.13;;
4148;SDS011;2088;51.032;7.082;2022-09-30T06:36:08;3.60;;;2.90;;
4148;SDS011;2088;51.032;7.082;2022-09-30T06:38:35;42.47;;;9.67;;
4148;SDS011;2088;51.032;7.082;2022-09-30T06:41:04;24.33;;;10.40;;
4148;SDS011;2088;51.032;7.082;2022-09-30T06:43:32;6.60;;;4.53;;
4148;SDS011;2088;51.032;7.082;2022-09-30T06:45:59;6.10;;;4.30;;
4148;SDS011;2088;51.032;7.082;2022-09-30T06:48:25;5.57;;;4.27;;
4148;SDS011;2088;51.032;7.082;2022-09-30T06:50:55;6.50;;;4.27;;
4148;SDS011;2088;51.032;7.082;2022-09-30T06:53:22;10.07;;;5.03;;
4148;SDS011;2088;51.032;7.082;2022-09-30T06:55:53;4.67;;;3.47;;
4148;SDS011;2088;51.032;7.082;2022-09-30T06:58:20;5.70;;;4.53;;
4148;SDS011;2088;51.032;7.082;2022-09-30T07:00:56;5.33;;;4.50;;
4148;SDS011;2088;51.032;7.082;2022-09-30T07:03:23;7.23;;;4.40;;
4148;SDS011;2088;51.032;7.082;2022-09-30T07:05:53;5.80;;;4.00;;
4148;SDS011;2088;51.032;7.082;2022-09-30T07:08:22;7.67;;;4.97;;
4148;SDS011;2088;51.032;7.082;2022-09-30T07:10:50;7.20;;;4.97;;
4148;SDS011;2088;51.032;7.082;2022-09-30T07:13:17;13.57;;;3.80;;
4148;SDS011;2088;51.032;7.082;2022-09-30T07:15:43;3.50;;;3.20;;
4148;SDS011;2088;51.032;7.082;2022-09-30T07:18:11;5.47;;;3.27;;
4148;SDS011;2088;51.032;7.082;2022-09-30T07:20:37;6.50;;;4.33;;
4148;SDS011;2088;51.032;7.082;2022-09-30T07:23:04;26.87;;;4.13;;
4148;SDS011;2088;51.032;7.082;2022-09-30T07:25:30;6.00;;;2.43;;
4148;SDS011;2088;51.032;7.082;2022-09-30T07:27:57;4.00;;;2.80;;
4148;SDS011;2088;51.032;7.082;2022-09-30T07:30:23;4.23;;;3.33;;
4148;SDS011;2088;51.032;7.082;2022-09-30T07:32:50;3.90;;;3.40;;
4148;SDS011;2088;51.032;7.082;2022-09-30T07:35:18;3.37;;;2.40;;
4148;SDS011;2088;51.032;7.082;2022-09-30T07:37:45;6.40;;;3.30;;
4148;SDS011;2088;51.032;7.082;2022-09-30T07:40:11;5.30;;;3.00;;
4148;SDS011;2088;51.032;7.082;2022-09-30T07:42:39;8.20;;;3.70;;
4148;SDS011;2088;51.032;7.082;2022-09-30T07:45:09;7.20;;;5.40;;
4148;SDS011;2088;51.032;7.082;2022-09-30T07:47:39;5.87;;;2.87;;
4148;SDS011;2088;51.032;7.082;2022-09-30T07:50:06;4.27;;;2.60;;
4148;SDS011;2088;51.032;7.082;2022-09-30T07:52:35;4.07;;;2.60;;
4148;SDS011;2088;51.032;7.082;2022-09-30T07:55:02;4.43;;;2.70;;
4148;SDS011;2088;51.032;7.082;2022-09-30T07:57:29;5.13;;;2.70;;
4148;SDS011;2088;51.032;7.082;2022-09-30T07:59:55;5.27;;;3.23;;
4148;SDS011;2088;51.032;7.082;2022-09-30T08:02:21;6.40;;;3.20;;
4148;SDS011;2088;51.032;7.082;2022-09-30T08:04:48;4.20;;;2.57;;
4148;SDS011;2088;51.032;7.082;2022-09-30T08:07:16;3.20;;;2.37;;
4148;SDS011;2088;51.032;7.082;2022-09-30T08:09:44;4.80;;;3.13;;
4148;SDS011;2088;51.032;7.082;2022-09-30T08:12:11;4.50;;;2.43;;
4148;SDS011;2088;51.032;7.082;2022-09-30T08:14:37;4.33;;;3.10;;
4148;SDS011;2088;51.032;7.082;2022-09-30T08:17:04;5.00;;;3.53;;
4148;SDS011;2088;51.032;7.082;2022-09-30T08:19:31;2.83;;;2.27;;
4148;SDS011;2088;51.032;7.082;2022-09-30T08:21:59;4.50;;;2.20;;
4148;SDS011;2088;51.032;7.082;2022-09-30T08:24:25;2.90;;;2.67;;
4148;SDS011;2088;51.032;7.082;2022-09-30T08:26:53;5.17;;;3.10;;
4148;SDS011;2088;51.032;7.082;2022-09-30T08:29:20;2.83;;;2.00;;
4148;SDS011;2088;51.032;7.082;2022-09-30T08:31:47;3.50;;;2.33;;
4148;SDS011;2088;51.032;7.082;2022-09-30T08:34:14;2.20;;;2.00;;
4148;SDS011;2088;51.032;7.082;2022-09-30T08:36:41;3.40;;;2.07;;
4148;SDS011;2088;51.032;7.082;2022-09-30T08:39:10;3.90;;;1.93;;
4148;SDS011;2088;51.032;7.082;2022-09-30T08:41:53;3.83;;;2.30;;
4148;SDS011;2088;51.032;7.082;2022-09-30T08:44:40;9.30;;;4.30;;
4148;SDS011;2088;51.032;7.082;2022-09-30T08:47:12;3.50;;;2.53;;
4148;SDS011;2088;51.032;7.082;2022-09-30T08:49:57;5.23;;;2.60;;
4148;SDS011;2088;51.032;7.082;2022-09-30T08:52:32;4.90;;;2.70;;
4148;SDS011;2088;51.032;7.082;2022-09-30T08:55:01;2.40;;;2.20;;
4148;SDS011;2088;51.032;7.082;2022-09-30T08:57:33;2.73;;;2.10;;
4148;SDS011;2088;51.032;7.082;2022-09-30T09:00:02;3.33;;;1.90;;
4148;SDS011;2088;51.032;7.082;2022-09-30T09:02:33;3.40;;;1.90;;
4148;SDS011;2088;51.032;7.082;2022-09-30T09:05:09;2.23;;;2.00;;
4148;SDS011;2088;51.032;7.082;2022-09-30T09:07:44;2.07;;;1.80;;
4148;SDS011;2088;51.032;7.082;2022-09-30T09:10:20;2.50;;;1.80;;
4148;SDS011;2088;51.032;7.082;2022-09-30T09:12:57;2.83;;;1.70;;
4148;SDS011;2088;51.032;7.082;2022-09-30T09:15:38;2.90;;;1.77;;
4148;SDS011;2088;51.032;7.082;2022-09-30T09:18:27;2.50;;;1.80;;
4148;SDS011;2088;51.032;7.082;2022-09-30T09:21:03;3.43;;;2.10;;
4148;SDS011;2088;51.032;7.082;2022-09-30T09:23:39;3.47;;;2.07;;
4148;SDS011;2088;51.032;7.082;2022-09-30T09:26:08;2.80;;;2.40;;
4148;SDS011;2088;51.032;7.082;2022-09-30T09:28:39;2.23;;;1.83;;
4148;SDS011;2088;51.032;7.082;2022-09-30T09:31:11;3.43;;;2.67;;
4148;SDS011;2088;51.032;7.082;2022-09-30T09:33:41;1.87;;;1.50;;
4148;SDS011;2088;51.032;7.082;2022-09-30T09:36:12;3.60;;;1.80;;
4148;SDS011;2088;51.032;7.082;2022-09-30T09:38:51;3.77;;;1.90;;
4148;SDS011;2088;51.032;7.082;2022-09-30T09:41:30;3.90;;;2.10;;
4148;SDS011;2088;51.032;7.082;2022-09-30T09:44:04;2.70;;;1.97;;
4148;SDS011;2088;51.032;7.082;2022-09-30T09:46:39;2.30;;;2.10;;
4148;SDS011;2088;51.032;7.082;2022-09-30T09:49:26;3.40;;;3.03;;
4148;SDS011;2088;51.032;7.082;2022-09-30T09:55:02;2.90;;;2.20;;
4148;SDS011;2088;51.032;7.082;2022-09-30T09:57:30;2.03;;;1.57;;
4148;SDS011;2088;51.032;7.082;2022-09-30T09:59:59;4.17;;;2.80;;
4148;SDS011;2088;51.032;7.082;2022-09-30T10:02:57;3.20;;;1.90;;
4148;SDS011;2088;51.032;7.082;2022-09-30T10:05:26;2.20;;;1.80;;
4148;SDS011;2088;51.032;7.082;2022-09-30T10:08:10;4.40;;;2.07;;
4148;SDS011;2088;51.032;7.082;2022-09-30T10:10:41;2.40;;;1.63;;
4148;SDS011;2088;51.032;7.082;2022-09-30T10:13:13;2.70;;;2.00;;
4148;SDS011;2088;51.032;7.082;2022-09-30T10:15:43;3.67;;;1.83;;
4148;SDS011;2088;51.032;7.082;2022-09-30T10:18:15;2.37;;;1.93;;
4148;SDS011;2088;51.032;7.082;2022-09-30T10:20:48;2.00;;;1.60;;
4148;SDS011;2088;51.032;7.082;2022-09-30T10:23:17;2.23;;;1.50;;
4148;SDS011;2088;51.032;7.082;2022-09-30T10:25:59;1.93;;;1.70;;
4148;SDS011;2088;51.032;7.082;2022-09-30T10:28:29;2.77;;;2.10;;
4148;SDS011;2088;51.032;7.082;2022-09-30T10:30:59;6.30;;;2.60;;
4148;SDS011;2088;51.032;7.082;2022-09-30T10:33:30;5.03;;;2.33;;
4148;SDS011;2088;51.032;7.082;2022-09-30T10:38:44;4.67;;;2.50;;
4148;SDS011;2088;51.032;7.082;2022-09-30T10:41:20;1.40;;;1.23;;
4148;SDS011;2088;51.032;7.082;2022-09-30T10:43:49;3.63;;;2.47;;
4148;SDS011;2088;51.032;7.082;2022-09-30T10:46:21;2.70;;;1.70;;
4148;SDS011;2088;51.032;7.082;2022-09-30T10:48:50;4.53;;;2.13;;
4148;SDS011;2088;51.032;7.082;2022-09-30T10:51:23;2.03;;;1.43;;
4148;SDS011;2088;51.032;7.082;2022-09-30T10:53:52;3.53;;;1.60;;
4148;SDS011;2088;51.032;7.082;2022-09-30T10:59:15;3.53;;;1.63;;
4148;SDS011;2088;51.032;7.082;2022-09-30T11:01:54;5.10;;;2.07;;
4148;SDS011;2088;51.032;7.082;2022-09-30T11:04:26;7.43;;;1.57;;
4148;SDS011;2088;51.032;7.082;2022-09-30T11:07:00;2.80;;;1.70;;
4148;SDS011;2088;51.032;7.082;2022-09-30T11:09:41;1.80;;;1.67;;
4148;SDS011;2088;51.032;7.082;2022-09-30T11:12:13;1.70;;;1.60;;
4148;SDS011;2088;51.032;7.082;2022-09-30T11:14:46;2.17;;;1.87;;
4148;SDS011;2088;51.032;7.082;2022-09-30T11:17:22;2.17;;;1.97;;
4148;SDS011;2088;51.032;7.082;2022-09-30T11:19:55;2.63;;;2.20;;
4148;SDS011;2088;51.032;7.082;2022-09-30T11:22:32;1.90;;;1.47;;
4148;SDS011;2088;51.032;7.082;2022-09-30T11:25:04;5.63;;;2.57;;
4148;SDS011;2088;51.032;7.082;2022-09-30T11:27:36;4.30;;;2.30;;
4148;SDS011;2088;51.032;7.082;2022-09-30T11:30:09;8.83;;;3.17;;
4148;SDS011;2088;51.032;7.082;2022-09-30T11:32:44;2.97;;;1.40;;
4148;SDS011;2088;51.032;7.082;2022-09-30T11:35:27;2.77;;;1.60;;
4148;SDS011;2088;51.032;7.082;2022-09-30T11:38:10;3.40;;;1.50;;
4148;SDS011;2088;51.032;7.082;2022-09-30T11:40:52;2.87;;;1.70;;
4148;SDS011;2088;51.032;7.082;2022-09-30T11:43:30;3.40;;;2.17;;
4148;SDS011;2088;51.032;7.082;2022-09-30T11:46:15;1.90;;;1.60;;
4148;SDS011;2088;51.032;7.082;2022-09-30T11:51:43;4.43;;;2.20;;
4148;SDS011;2088;51.032;7.082;2022-09-30T11:54:21;3.63;;;1.50;;
4148;SDS011;2088;51.032;7.082;2022-09-30T11:56:58;3.47;;;1.67;;
4148;SDS011;2088;51.032;7.082;2022-09-30T11:59:34;8.70;;;1.90;;
4148;SDS011;2088;51.032;7.082;2022-09-30T12:02:08;5.93;;;1.97;;
4148;SDS011;2088;51.032;7.082;2022-09-30T12:04:45;1.83;;;1.63;;
4148;SDS011;2088;51.032;7.082;2022-09-30T12:07:14;2.03;;;1.70;;
4148;SDS011;2088;51.032;7.082;2022-09-30T12:09:45;2.60;;;1.63;;
4148;SDS011;2088;51.032;7.082;2022-09-30T12:12:15;2.40;;;1.77;;
4148;SDS011;2088;51.032;7.082;2022-09-30T12:14:45;7.77;;;1.83;;
4148;SDS011;2088;51.032;7.082;2022-09-30T12:17:17;2.80;;;2.10;;
4148;SDS011;2088;51.032;7.082;2022-09-30T12:19:49;5.27;;;1.97;;
4148;SDS011;2088;51.032;7.082;2022-09-30T12:22:19;4.60;;;2.40;;
4148;SDS011;2088;51.032;7.082;2022-09-30T12:24:49;3.93;;;2.40;;
4148;SDS011;2088;51.032;7.082;2022-09-30T12:27:18;2.90;;;2.27;;
4148;SDS011;2088;51.032;7.082;2022-09-30T12:29:53;4.23;;;1.90;;
4148;SDS011;2088;51.032;7.082;2022-09-30T12:35:54;1.90;;;1.60;;
4148;SDS011;2088;51.032;7.082;2022-09-30T12:41:47;3.27;;;1.93;;
4148;SDS011;2088;51.032;7.082;2022-09-30T12:47:35;2.97;;;1.60;;
4148;SDS011;2088;51.032;7.082;2022-09-30T12:50:10;15.83;;;2.60;;
4148;SDS011;2088;51.032;7.082;2022-09-30T12:52:40;4.80;;;1.33;;
4148;SDS011;2088;51.032;7.082;2022-09-30T12:55:12;2.03;;;1.30;;
4148;SDS011;2088;51.032;7.082;2022-09-30T12:57:46;5.03;;;1.87;;
4148;SDS011;2088;51.032;7.082;2022-09-30T13:00:15;2.20;;;1.50;;
4148;SDS011;2088;51.032;7.082;2022-09-30T13:02:43;11.43;;;2.03;;
4148;SDS011;2088;51.032;7.082;2022-09-30T13:05:30;2.07;;;1.30;;
4148;SDS011;2088;51.032;7.082;2022-09-30T13:08:23;2.10;;;1.33;;
4148;SDS011;2088;51.032;7.082;2022-09-30T13:11:05;1.83;;;1.50;;
4148;SDS011;2088;51.032;7.082;2022-09-30T13:13:55;2.00;;;1.40;;
4148;SDS011;2088;51.032;7.082;2022-09-30T13:19:32;2.47;;;1.30;;
4148;SDS011;2088;51.032;7.082;2022-09-30T13:25:17;7.63;;;1.40;;
4148;SDS011;2088;51.032;7.082;2022-09-30T13:27:44;2.43;;;1.10;;
4148;SDS011;2088;51.032;7.082;2022-09-30T13:30:31;1.63;;;1.13;;
4148;SDS011;2088;51.032;7.082;2022-09-30T13:33:05;2.67;;;1.13;;
4148;SDS011;2088;51.032;7.082;2022-09-30T13:35:56;5.10;;;0.93;;
4148;SDS011;2088;51.032;7.082;2022-09-30T13:38:32;1.30;;;0.90;;
4148;SDS011;2088;51.032;7.082;2022-09-30T13:41:04;1.33;;;1.03;;
4148;SDS011;2088;51.032;7.082;2022-09-30T13:43:41;5.03;;;1.10;;
4148;SDS011;2088;51.032;7.082;2022-09-30T13:46:12;1.30;;;0.90;;
4148;SDS011;2088;51.032;7.082;2022-09-30T13:48:54;3.63;;;1.10;;
4148;SDS011;2088;51.032;7.082;2022-09-30T13:51:26;1.10;;;0.70;;
4148;SDS011;2088;51.032;7.082;2022-09-30T13:53:57;5.40;;;1.30;;
4148;SDS011;2088;51.032;7.082;2022-09-30T13:56:29;2.17;;;1.27;;
4148;SDS011;2088;51.032;7.082;2022-09-30T13:59:06;1.67;;;0.83;;
4148;SDS011;2088;51.032;7.082;2022-09-30T14:01:57;2.07;;;0.90;;
4148;SDS011;2088;51.032;7.082;2022-09-30T14:07:29;1.40;;;0.87;;
4148;SDS011;2088;51.032;7.082;2022-09-30T14:13:03;1.40;;;1.20;;
4148;SDS011;2088;51.032;7.082;2022-09-30T14:15:43;4.50;;;1.20;;
4148;SDS011;2088;51.032;7.082;2022-09-30T14:18:32;2.17;;;1.30;;
4148;SDS011;2088;51.032;7.082;2022-09-30T14:21:21;1.70;;;1.20;;
4148;SDS011;2088;51.032;7.082;2022-09-30T14:23:56;6.13;;;1.00;;
4148;SDS011;2088;51.032;7.082;2022-09-30T14:26:30;2.03;;;0.80;;
4148;SDS011;2088;51.032;7.082;2022-09-30T14:29:19;6.23;;;1.60;;
4148;SDS011;2088;51.032;7.082;2022-09-30T14:31:52;2.50;;;1.30;;
4148;SDS011;2088;51.032;7.082;2022-09-30T14:34:20;4.07;;;0.80;;
4148;SDS011;2088;51.032;7.082;2022-09-30T14:36:49;2.60;;;1.20;;
4148;SDS011;2088;51.032;7.082;2022-09-30T14:39:17;11.03;;;1.20;;
4148;SDS011;2088;51.032;7.082;2022-09-30T14:41:48;4.53;;;1.00;;
4148;SDS011;2088;51.032;7.082;2022-09-30T14:44:20;1.87;;;0.70;;
4148;SDS011;2088;51.032;7.082;2022-09-30T14:46:48;1.40;;;0.80;;
4148;SDS011;2088;51.032;7.082;2022-09-30T14:49:20;3.73;;;0.80;;
4148;SDS011;2088;51.032;7.082;2022-09-30T14:51:56;2.50;;;1.10;;
4148;SDS011;2088;51.032;7.082;2022-09-30T14:54:25;5.03;;;1.17;;
4148;SDS011;2088;51.032;7.082;2022-09-30T14:56:53;1.20;;;1.00;;
4148;SDS011;2088;51.032;7.082;2022-09-30T14:59:23;1.07;;;0.77;;
4148;SDS011;2088;51.032;7.082;2022-09-30T15:01:52;1.20;;;0.80;;
4148;SDS011;2088;51.032;7.082;2022-09-30T15:04:23;1.37;;;0.80;;
4148;SDS011;2088;51.032;7.082;2022-09-30T15:06:51;1.93;;;1.20;;
4148;SDS011;2088;51.032;7.082;2022-09-30T15:09:19;2.90;;;0.77;;
4148;SDS011;2088;51.032;7.082;2022-09-30T15:11:48;1.80;;;0.90;;
4148;SDS011;2088;51.032;7.082;2022-09-30T15:14:16;1.10;;;0.70;;
4148;SDS011;2088;51.032;7.082;2022-09-30T15:16:46;2.00;;;0.90;;
4148;SDS011;2088;51.032;7.082;2022-09-30T15:19:16;1.27;;;0.80;;
4148;SDS011;2088;51.032;7.082;2022-09-30T15:21:45;1.67;;;0.70;;
4148;SDS011;2088;51.032;7.082;2022-09-30T15:24:13;0.90;;;0.60;;
4148;SDS011;2088;51.032;7.082;2022-09-30T15:26:41;1.30;;;1.00;;
4148;SDS011;2088;51.032;7.082;2022-09-30T15:29:08;1.30;;;0.70;;
4148;SDS011;2088;51.032;7.082;2022-09-30T15:31:39;1.00;;;0.70;;
4148;SDS011;2088;51.032;7.082;2022-09-30T15:34:13;1.30;;;0.70;;
4148;SDS011;2088;51.032;7.082;2022-09-30T15:36:42;1.20;;;0.70;;
4148;SDS011;2088;51.032;7.082;2022-09-30T15:39:18;1.97;;;0.70;;
4148;SDS011;2088;51.032;7.082;2022-09-30T15:41:47;2.60;;;0.80;;
4148;SDS011;2088;51.032;7.082;2022-09-30T15:44:15;1.00;;;0.60;;
4148;SDS011;2088;51.032;7.082;2022-09-30T15:46:58;1.00;;;0.70;;
4148;SDS011;2088;51.032;7.082;2022-09-30T15:49:32;1.20;;;0.70;;
4148;SDS011;2088;51.032;7.082;2022-09-30T15:52:18;2.17;;;0.93;;
4148;SDS011;2088;51.032;7.082;2022-09-30T15:54:52;1.00;;;0.63;;
4148;SDS011;2088;51.032;7.082;2022-09-30T16:00:11;4.90;;;1.30;;
4148;SDS011;2088;51.032;7.082;2022-09-30T16:03:04;2.10;;;0.83;;
4148;SDS011;2088;51.032;7.082;2022-09-30T16:05:34;1.03;;;0.70;;
4148;SDS011;2088;51.032;7.082;2022-09-30T16:08:00;1.17;;;0.60;;
4148;SDS011;2088;51.032;7.082;2022-09-30T16:10:33;1.43;;;0.70;;
4148;SDS011;2088;51.032;7.082;2022-09-30T16:13:01;1.00;;;0.70;;
4148;SDS011;2088;51.032;7.082;2022-09-30T16:15:29;1.30;;;0.83;;
4148;SDS011;2088;51.032;7.082;2022-09-30T16:17:55;1.33;;;0.90;;
4148;SDS011;2088;51.032;7.082;2022-09-30T16:20:23;1.70;;;0.90;;